Time;durP1;ratioP1;P1;durP2;ratioP2;P2;SDS_P1;SDS_P2;PMS_P1;PMS_P2;Temp;Humidity;BMP_temperature;BMP_pressure;BME280_temperature;BME280_humidity;BME280_pressure;Samples;Min_cycle;Max_cycle;Signal;HPM_P1;HPM_P2
2021/12/03 00:00:52;;;;;;;3.60;3.30;;;;;;;;;;4981662;28;24460;-59
2021/12/03 00:03:17;;;;;;;4.80;3.10;;;;;;;;;;4983588;28;24815;-60
2021/12/03 00:05:42;;;;;;;3.70;3.40;;;;;;;;;;4981996;28;24858;-59
2021/12/03 00:08:08;;;;;;;5.00;3.40;;;;;;;;;;4978498;28;24487;-60
2021/12/03 00:10:34;;;;;;;4.10;3.58;;;;;;;;;;4980122;28;24595;-60
2021/12/03 00:13:00;;;;;;;5.70;3.85;;;;;;;;;;4978331;28;24393;-59
2021/12/03 00:15:25;;;;;;;4.30;3.57;;;;;;;;;;4978173;28;24440;-60
2021/12/03 00:17:51;;;;;;;4.50;4.03;;;;;;;;;;4979672;28;24409;-60
2021/12/03 00:20:17;;;;;;;4.13;3.73;;;;;;;;;;4984072;28;24406;-59
2021/12/03 00:22:43;;;;;;;4.10;3.70;;;;;;;;;;4981662;28;24417;-60
2021/12/03 00:25:09;;;;;;;4.32;3.80;;;;;;;;;;4978306;28;25213;-60
2021/12/03 00:27:34;;;;;;;4.93;4.20;;;;;;;;;;4978192;28;24420;-60
2021/12/03 00:29:59;;;;;;;5.70;4.72;;;;;;;;;;4979365;28;24405;-60
2021/12/03 00:32:25;;;;;;;5.03;4.53;;;;;;;;;;4983455;28;24424;-60
2021/12/03 00:34:50;;;;;;;6.97;5.07;;;;;;;;;;4982286;28;25074;-60
2021/12/03 00:37:15;;;;;;;5.78;5.13;;;;;;;;;;4983692;28;24425;-60
2021/12/03 00:39:40;;;;;;;5.90;5.40;;;;;;;;;;4991517;28;25036;-60
2021/12/03 00:42:06;;;;;;;5.60;4.67;;;;;;;;;;4984764;28;24804;-59
2021/12/03 00:44:31;;;;;;;5.75;5.15;;;;;;;;;;4990485;28;24423;-59
2021/12/03 00:46:57;;;;;;;6.40;5.30;;;;;;;;;;4998994;28;24498;-60
2021/12/03 00:49:22;;;;;;;6.17;5.60;;;;;;;;;;5001553;28;24440;-61
2021/12/03 00:51:47;;;;;;;5.80;5.17;;;;;;;;;;4986145;28;24959;-61
2021/12/03 00:54:13;;;;;;;6.77;5.70;;;;;;;;;;4981588;28;24421;-60
2021/12/03 00:56:38;;;;;;;6.40;5.17;;;;;;;;;;4975728;28;24499;-61
2021/12/03 00:59:03;;;;;;;7.57;6.30;;;;;;;;;;4979216;28;24464;-59
2021/12/03 01:01:28;;;;;;;5.47;4.97;;;;;;;;;;4979467;28;25277;-60
2021/12/03 01:03:54;;;;;;;5.78;5.18;;;;;;;;;;4984006;28;24471;-59
2021/12/03 01:06:19;;;;;;;6.70;5.07;;;;;;;;;;4981401;28;24442;-60
2021/12/03 01:08:44;;;;;;;5.70;5.20;;;;;;;;;;4994397;28;24458;-59
2021/12/03 01:11:10;;;;;;;7.17;5.60;;;;;;;;;;4990114;28;24513;-59
2021/12/03 01:13:37;;;;;;;6.10;5.50;;;;;;;;;;4982442;28;24851;-59
2021/12/03 01:16:03;;;;;;;6.10;5.60;;;;;;;;;;4984347;28;24987;-59
2021/12/03 01:18:28;;;;;;;5.95;5.40;;;;;;;;;;4983410;28;24409;-59
2021/12/03 01:20:53;;;;;;;6.53;5.70;;;;;;;;;;4978994;28;25234;-59
2021/12/03 01:23:18;;;;;;;6.77;6.10;;;;;;;;;;4977119;28;24959;-59
2021/12/03 01:25:43;;;;;;;6.60;5.88;;;;;;;;;;4978127;28;24926;-59
2021/12/03 01:28:08;;;;;;;6.40;5.80;;;;;;;;;;4979514;28;24994;-60
2021/12/03 01:30:35;;;;;;;6.30;5.70;;;;;;;;;;4977660;28;24467;-59
2021/12/03 01:33:01;;;;;;;6.50;6.00;;;;;;;;;;4983036;28;24437;-59
2021/12/03 01:35:27;;;;;;;6.60;6.00;;;;;;;;;;4985596;28;24551;-59
2021/12/03 01:37:52;;;;;;;7.10;6.50;;;;;;;;;;4980967;28;24552;-59
2021/12/03 01:40:19;;;;;;;8.70;7.90;;;;;;;;;;4981061;28;24408;-59
2021/12/03 01:42:45;;;;;;;7.50;6.80;;;;;;;;;;4979179;28;25049;-59
2021/12/03 01:45:11;;;;;;;7.57;6.80;;;;;;;;;;4980743;28;24568;-59
2021/12/03 01:47:36;;;;;;;8.30;7.38;;;;;;;;;;4982801;28;24752;-59
2021/12/03 01:50:02;;;;;;;8.50;7.70;;;;;;;;;;4980374;28;25005;-59
2021/12/03 01:52:28;;;;;;;7.88;7.07;;;;;;;;;;4979198;28;24437;-59
2021/12/03 01:54:53;;;;;;;9.15;7.75;;;;;;;;;;4987386;28;25044;-59
2021/12/03 01:57:19;;;;;;;7.70;7.00;;;;;;;;;;4983691;28;24448;-59
2021/12/03 01:59:44;;;;;;;7.70;6.90;;;;;;;;;;4984627;28;24481;-58
2021/12/03 02:02:09;;;;;;;7.70;7.00;;;;;;;;;;4987078;28;24424;-58
2021/12/03 02:04:35;;;;;;;7.70;6.90;;;;;;;;;;4998671;28;24479;-59
2021/12/03 02:07:00;;;;;;;8.60;7.70;;;;;;;;;;4985324;28;24452;-59
2021/12/03 02:09:25;;;;;;;8.33;7.30;;;;;;;;;;4999805;28;24401;-59
2021/12/03 02:11:51;;;;;;;9.00;7.70;;;;;;;;;;4993824;28;24432;-59
2021/12/03 02:14:16;;;;;;;8.70;7.80;;;;;;;;;;4985937;28;24429;-59
2021/12/03 02:16:45;;;;;;;8.27;7.23;;;;;;;;;;4983174;28;24532;-58
2021/12/03 02:19:10;;;;;;;7.35;6.65;;;;;;;;;;4981790;28;24841;-59
2021/12/03 02:21:35;;;;;;;7.82;6.60;;;;;;;;;;4983593;28;24499;-63
2021/12/03 02:24:00;;;;;;;7.50;6.60;;;;;;;;;;4985516;28;24432;-58
2021/12/03 02:26:25;;;;;;;7.27;6.27;;;;;;;;;;4987172;28;24550;-58
2021/12/03 02:28:51;;;;;;;7.13;6.43;;;;;;;;;;4984187;28;24455;-59
2021/12/03 02:31:18;;;;;;;7.83;6.60;;;;;;;;;;4982219;28;24464;-58
2021/12/03 02:33:43;;;;;;;7.50;6.40;;;;;;;;;;4980829;28;24462;-59
2021/12/03 02:36:08;;;;;;;10.77;6.90;;;;;;;;;;4981162;28;24475;-59
2021/12/03 02:38:34;;;;;;;6.82;6.22;;;;;;;;;;4986038;28;24691;-59
2021/12/03 02:40:59;;;;;;;8.00;7.00;;;;;;;;;;4985224;28;24475;-59
2021/12/03 02:43:25;;;;;;;7.13;6.43;;;;;;;;;;4985652;28;24519;-59
2021/12/03 02:45:51;;;;;;;9.70;7.60;;;;;;;;;;4982132;28;24420;-59
2021/12/03 02:48:16;;;;;;;9.80;7.70;;;;;;;;;;5000273;28;25029;-58
2021/12/03 02:50:42;;;;;;;7.90;7.10;;;;;;;;;;4964272;28;24401;-59
2021/12/03 02:53:07;;;;;;;8.33;7.53;;;;;;;;;;4975458;28;25496;-59
2021/12/03 02:55:32;;;;;;;8.50;7.60;;;;;;;;;;4981524;28;24437;-58
2021/12/03 02:57:57;;;;;;;8.90;7.60;;;;;;;;;;4981257;28;24441;-58
2021/12/03 03:00:23;;;;;;;9.63;8.03;;;;;;;;;;4985059;28;25041;-58
2021/12/03 03:02:49;;;;;;;10.73;8.60;;;;;;;;;;4994926;28;24420;-59
2021/12/03 03:05:15;;;;;;;9.07;8.13;;;;;;;;;;4983183;28;24412;-62
2021/12/03 03:07:41;;;;;;;7.97;7.28;;;;;;;;;;4979976;28;24463;-59
2021/12/03 03:10:09;;;;;;;9.60;7.88;;;;;;;;;;4985144;28;24504;-58
2021/12/03 03:12:35;;;;;;;9.10;8.10;;;;;;;;;;4985179;28;24416;-57
2021/12/03 03:15:00;;;;;;;10.40;7.80;;;;;;;;;;4983893;28;24567;-59
2021/12/03 03:17:27;;;;;;;9.18;8.25;;;;;;;;;;4980667;28;24429;-59
2021/12/03 03:19:53;;;;;;;9.75;8.10;;;;;;;;;;4979104;28;24413;-59
2021/12/03 03:22:18;;;;;;;9.02;8.10;;;;;;;;;;4980772;28;24787;-59
2021/12/03 03:24:43;;;;;;;9.10;8.20;;;;;;;;;;4981591;28;24921;-59
2021/12/03 03:27:09;;;;;;;10.80;8.33;;;;;;;;;;4984530;28;24495;-58
2021/12/03 03:29:34;;;;;;;8.87;7.97;;;;;;;;;;4984331;28;24499;-59
2021/12/03 03:32:00;;;;;;;9.40;8.30;;;;;;;;;;4982685;28;24417;-59
2021/12/03 03:34:25;;;;;;;10.00;8.60;;;;;;;;;;4983308;28;24517;-58
2021/12/03 03:36:51;;;;;;;10.67;8.43;;;;;;;;;;4980070;28;24532;-59
2021/12/03 03:39:16;;;;;;;9.73;8.47;;;;;;;;;;4980122;28;24635;-59
2021/12/03 03:41:41;;;;;;;10.33;8.63;;;;;;;;;;4995752;28;24440;-58
2021/12/03 03:44:07;;;;;;;10.07;8.47;;;;;;;;;;4984525;28;24619;-59
2021/12/03 03:46:32;;;;;;;9.90;8.77;;;;;;;;;;4984554;28;25001;-59
2021/12/03 03:48:57;;;;;;;10.20;9.07;;;;;;;;;;4981089;28;24986;-59
2021/12/03 03:51:23;;;;;;;9.90;8.70;;;;;;;;;;4989344;28;24776;-59
2021/12/03 03:53:48;;;;;;;10.43;8.30;;;;;;;;;;4984995;28;24417;-59
2021/12/03 03:56:13;;;;;;;9.63;8.50;;;;;;;;;;4984358;28;24495;-59
2021/12/03 03:58:38;;;;;;;9.53;8.63;;;;;;;;;;4983187;28;24409;-59
2021/12/03 04:01:05;;;;;;;14.70;9.93;;;;;;;;;;4980914;28;24467;-59
2021/12/03 04:03:30;;;;;;;10.80;9.63;;;;;;;;;;4979207;28;24424;-58
2021/12/03 04:05:55;;;;;;;10.27;8.57;;;;;;;;;;4978734;28;24907;-59
2021/12/03 04:08:22;;;;;;;10.33;9.23;;;;;;;;;;4983450;28;24420;-59
2021/12/03 04:10:47;;;;;;;12.13;9.00;;;;;;;;;;4981454;28;24507;-59
2021/12/03 04:13:12;;;;;;;9.83;8.83;;;;;;;;;;4982113;28;24500;-59
2021/12/03 04:15:37;;;;;;;10.47;8.90;;;;;;;;;;4980135;28;25264;-58
2021/12/03 04:18:02;;;;;;;11.67;9.40;;;;;;;;;;4978470;28;24464;-59
2021/12/03 04:20:28;;;;;;;11.60;9.37;;;;;;;;;;4983828;28;24420;-58
2021/12/03 04:22:53;;;;;;;12.60;10.40;;;;;;;;;;4982102;28;24416;-59
2021/12/03 04:25:19;;;;;;;12.53;9.50;;;;;;;;;;4978104;28;24871;-59
2021/12/03 04:27:46;;;;;;;11.65;9.43;;;;;;;;;;4983048;28;24413;-58
2021/12/03 04:30:13;;;;;;;9.97;8.80;;;;;;;;;;4983363;28;24568;-59
2021/12/03 04:32:38;;;;;;;11.07;9.00;;;;;;;;;;4980911;28;24495;-59
2021/12/03 04:35:04;;;;;;;10.40;9.40;;;;;;;;;;4983565;28;24400;-58
2021/12/03 04:37:29;;;;;;;10.10;9.00;;;;;;;;;;4982930;28;24838;-59
2021/12/03 04:39:54;;;;;;;9.90;8.90;;;;;;;;;;4986766;28;24428;-58
2021/12/03 04:42:20;;;;;;;10.27;8.80;;;;;;;;;;4983686;28;24832;-59
2021/12/03 04:44:45;;;;;;;10.70;9.10;;;;;;;;;;4977163;28;24479;-59
2021/12/03 04:47:10;;;;;;;9.83;8.37;;;;;;;;;;4982321;28;24456;-58
2021/12/03 04:49:35;;;;;;;9.73;8.70;;;;;;;;;;4978939;28;24425;-58
2021/12/03 04:52:01;;;;;;;10.57;8.73;;;;;;;;;;4982849;28;24523;-58
2021/12/03 04:54:26;;;;;;;12.65;10.05;;;;;;;;;;4984667;28;24969;-58
2021/12/03 04:56:52;;;;;;;11.43;9.43;;;;;;;;;;4990311;28;24452;-58
2021/12/03 04:59:17;;;;;;;10.77;8.95;;;;;;;;;;4984343;28;24417;-58
2021/12/03 05:01:42;;;;;;;10.73;8.57;;;;;;;;;;4979065;28;24844;-58
2021/12/03 05:04:07;;;;;;;11.15;9.30;;;;;;;;;;4982613;28;24967;-58
2021/12/03 05:09:17;;;;;;;10.43;8.93;;;;;;;;;;4977805;28;24627;-61
2021/12/03 05:11:42;;;;;;;10.77;8.93;;;;;;;;;;4987498;28;24520;-61
2021/12/03 05:14:07;;;;;;;10.02;8.90;;;;;;;;;;4995245;28;24516;-61
2021/12/03 05:16:32;;;;;;;9.65;8.00;;;;;;;;;;4988878;28;25035;-60
2021/12/03 05:18:57;;;;;;;8.82;7.93;;;;;;;;;;4984588;28;24412;-61
2021/12/03 05:21:22;;;;;;;9.90;8.32;;;;;;;;;;4982710;28;24492;-61
2021/12/03 05:23:47;;;;;;;10.07;8.83;;;;;;;;;;4979857;28;24413;-61
2021/12/03 05:26:12;;;;;;;9.40;8.32;;;;;;;;;;4981640;28;24416;-61
2021/12/03 05:28:38;;;;;;;8.70;7.90;;;;;;;;;;4983237;28;24487;-61
2021/12/03 05:31:03;;;;;;;8.90;7.10;;;;;;;;;;4984807;28;24475;-61
2021/12/03 05:33:28;;;;;;;8.40;7.60;;;;;;;;;;4992007;28;24419;-61
2021/12/03 05:35:53;;;;;;;7.93;7.13;;;;;;;;;;4991140;28;24479;-61
2021/12/03 05:38:19;;;;;;;7.57;6.87;;;;;;;;;;5004684;28;24412;-61
2021/12/03 05:40:44;;;;;;;7.00;6.38;;;;;;;;;;4984691;28;24424;-61
2021/12/03 05:43:10;;;;;;;6.90;6.30;;;;;;;;;;4985039;28;24532;-61
2021/12/03 05:45:35;;;;;;;7.00;6.30;;;;;;;;;;4982870;28;24444;-59
2021/12/03 05:48:01;;;;;;;7.20;6.50;;;;;;;;;;4986846;28;25010;-60
2021/12/03 05:50:27;;;;;;;6.60;6.00;;;;;;;;;;4987837;28;24464;-59
2021/12/03 05:52:52;;;;;;;6.47;5.87;;;;;;;;;;4984982;28;24408;-59
2021/12/03 05:55:18;;;;;;;7.10;6.40;;;;;;;;;;4984468;28;24509;-60
2021/12/03 05:57:44;;;;;;;7.75;6.40;;;;;;;;;;4984689;28;24417;-60
2021/12/03 06:00:16;;;;;;;6.75;6.03;;;;;;;;;;4986200;28;24974;-59
2021/12/03 06:02:41;;;;;;;6.38;5.75;;;;;;;;;;4985206;28;24413;-59
2021/12/03 06:05:07;;;;;;;7.63;6.40;;;;;;;;;;4986468;28;24513;-59
2021/12/03 06:07:32;;;;;;;6.20;5.60;;;;;;;;;;4981448;28;24404;-58
2021/12/03 06:09:57;;;;;;;7.67;5.83;;;;;;;;;;4981015;28;24459;-58
2021/12/03 06:12:22;;;;;;;6.88;5.55;;;;;;;;;;4984249;28;24452;-58
2021/12/03 06:14:47;;;;;;;5.97;5.38;;;;;;;;;;4987630;28;24562;-58
2021/12/03 06:17:13;;;;;;;7.30;5.80;;;;;;;;;;5003094;28;24432;-58
2021/12/03 06:19:39;;;;;;;6.95;5.22;;;;;;;;;;4995124;28;24967;-58
2021/12/03 06:22:04;;;;;;;6.27;5.67;;;;;;;;;;4982929;28;24417;-58
2021/12/03 06:24:29;;;;;;;7.53;5.30;;;;;;;;;;4982287;28;24440;-58
2021/12/03 06:26:54;;;;;;;5.70;5.10;;;;;;;;;;4980801;28;24460;-58
2021/12/03 06:29:20;;;;;;;5.50;5.00;;;;;;;;;;4980468;28;24536;-58
2021/12/03 06:31:45;;;;;;;5.33;4.70;;;;;;;;;;4997723;28;24463;-59
2021/12/03 06:34:10;;;;;;;5.35;4.85;;;;;;;;;;5000433;28;24472;-58
2021/12/03 06:36:35;;;;;;;5.63;5.13;;;;;;;;;;4987856;28;24955;-59
2021/12/03 06:39:00;;;;;;;5.50;5.00;;;;;;;;;;4977571;28;24421;-59
2021/12/03 06:41:25;;;;;;;5.53;5.03;;;;;;;;;;4977230;28;24502;-59
2021/12/03 06:43:51;;;;;;;6.32;5.32;;;;;;;;;;4985052;28;24424;-59
2021/12/03 06:46:17;;;;;;;5.80;5.30;;;;;;;;;;4982143;28;24460;-59
2021/12/03 06:48:42;;;;;;;7.05;5.50;;;;;;;;;;4980935;28;24482;-59
2021/12/03 06:51:07;;;;;;;5.47;4.90;;;;;;;;;;4978065;28;24479;-59
2021/12/03 06:53:56;;;;;;;6.43;5.50;;;;;;;;;;4976391;28;24416;-59
2021/12/03 06:56:21;;;;;;;6.20;5.45;;;;;;;;;;4983011;28;24452;-59
2021/12/03 06:58:47;;;;;;;6.20;5.30;;;;;;;;;;4980844;28;24416;-59
2021/12/03 07:01:12;;;;;;;4.97;4.57;;;;;;;;;;4985893;28;24409;-59
2021/12/03 07:03:37;;;;;;;6.57;5.10;;;;;;;;;;4977800;28;24436;-59
2021/12/03 07:06:02;;;;;;;6.40;5.67;;;;;;;;;;4978502;28;24467;-59
2021/12/03 07:08:27;;;;;;;6.80;5.63;;;;;;;;;;4982126;28;24421;-59
2021/12/03 07:10:53;;;;;;;7.00;5.90;;;;;;;;;;4987258;28;24515;-59
2021/12/03 07:13:18;;;;;;;5.68;5.18;;;;;;;;;;4978547;28;24421;-59
2021/12/03 07:15:43;;;;;;;6.43;5.60;;;;;;;;;;4979411;28;24436;-59
2021/12/03 07:18:08;;;;;;;5.17;4.67;;;;;;;;;;4977538;28;25383;-59
2021/12/03 07:20:33;;;;;;;4.40;3.83;;;;;;;;;;4979186;28;24421;-59
2021/12/03 07:22:59;;;;;;;4.50;4.20;;;;;;;;;;4979876;28;24413;-59
2021/12/03 07:25:24;;;;;;;4.28;3.90;;;;;;;;;;4982313;28;24405;-59
2021/12/03 07:27:49;;;;;;;3.83;3.50;;;;;;;;;;4979960;28;24425;-60
2021/12/03 07:30:15;;;;;;;4.20;3.80;;;;;;;;;;4976127;28;24505;-60
2021/12/03 07:32:41;;;;;;;4.00;3.60;;;;;;;;;;4975096;28;24421;-58
2021/12/03 07:35:07;;;;;;;5.10;4.30;;;;;;;;;;4981429;28;24768;-59
2021/12/03 07:37:32;;;;;;;5.10;4.00;;;;;;;;;;4980796;28;24416;-59
2021/12/03 07:40:00;;;;;;;5.00;4.50;;;;;;;;;;4979546;28;24815;-59
2021/12/03 07:42:25;;;;;;;4.90;4.27;;;;;;;;;;4981034;28;24425;-59
2021/12/03 07:44:51;;;;;;;4.50;4.10;;;;;;;;;;4979976;28;25017;-59
2021/12/03 07:47:16;;;;;;;4.50;4.10;;;;;;;;;;4981091;28;24471;-59
2021/12/03 07:49:41;;;;;;;4.43;4.07;;;;;;;;;;4980192;28;24432;-59
2021/12/03 07:52:09;;;;;;;6.32;4.40;;;;;;;;;;4983593;28;25042;-59
2021/12/03 07:54:34;;;;;;;4.70;4.30;;;;;;;;;;4979466;28;24428;-59
2021/12/03 07:56:59;;;;;;;4.60;4.20;;;;;;;;;;4978897;28;24883;-59
2021/12/03 07:59:24;;;;;;;4.82;4.32;;;;;;;;;;4985297;28;24453;-59
2021/12/03 08:01:50;;;;;;;4.88;4.38;;;;;;;;;;4986283;28;24424;-59
2021/12/03 08:04:15;;;;;;;5.90;4.10;;;;;;;;;;4985440;28;24866;-59
2021/12/03 08:06:42;;;;;;;4.70;4.30;;;;;;;;;;4988795;28;24428;-59
2021/12/03 08:09:07;;;;;;;4.90;3.90;;;;;;;;;;4984037;28;24455;-58
2021/12/03 08:11:33;;;;;;;4.37;3.97;;;;;;;;;;4983258;28;24808;-58
2021/12/03 08:13:58;;;;;;;4.43;4.10;;;;;;;;;;4978538;28;24495;-58
2021/12/03 08:16:23;;;;;;;5.33;4.30;;;;;;;;;;4987464;28;24441;-59
2021/12/03 08:18:48;;;;;;;5.23;4.50;;;;;;;;;;4981850;28;24456;-59
2021/12/03 08:21:13;;;;;;;5.30;4.80;;;;;;;;;;5000179;28;24412;-58
2021/12/03 08:23:38;;;;;;;4.47;3.85;;;;;;;;;;4988348;28;24487;-58
2021/12/03 08:26:04;;;;;;;3.50;3.20;;;;;;;;;;4982262;28;25302;-58
2021/12/03 08:28:29;;;;;;;4.30;3.20;;;;;;;;;;4978725;28;24441;-59
2021/12/03 08:30:54;;;;;;;3.63;3.20;;;;;;;;;;4986962;28;24424;-59
2021/12/03 08:33:19;;;;;;;3.20;3.00;;;;;;;;;;4988708;28;24952;-59
2021/12/03 08:35:45;;;;;;;5.00;3.50;;;;;;;;;;4980823;28;24972;-59
2021/12/03 08:38:10;;;;;;;4.60;3.50;;;;;;;;;;4990087;28;24554;-62
2021/12/03 08:40:35;;;;;;;3.17;2.97;;;;;;;;;;4984736;28;24784;-62
2021/12/03 08:43:01;;;;;;;3.60;2.80;;;;;;;;;;4995914;28;24471;-61
2021/12/03 08:45:26;;;;;;;3.73;2.80;;;;;;;;;;4980533;28;24479;-61
2021/12/03 08:47:55;;;;;;;3.33;3.13;;;;;;;;;;4983122;28;24964;-61
2021/12/03 08:50:29;;;;;;;4.23;3.27;;;;;;;;;;4983460;28;24413;-61
2021/12/03 08:55:39;;;;;;;2.72;2.53;;;;;;;;;;4973514;28;24429;-60
2021/12/03 08:58:04;;;;;;;3.05;2.65;;;;;;;;;;4988032;28;24982;-59
2021/12/03 09:00:30;;;;;;;3.10;2.80;;;;;;;;;;4986612;28;24424;-60
2021/12/03 09:02:55;;;;;;;2.63;2.42;;;;;;;;;;4983465;28;24413;-60
2021/12/03 09:05:20;;;;;;;2.87;2.57;;;;;;;;;;4986956;28;24978;-60
2021/12/03 09:07:45;;;;;;;3.70;2.40;;;;;;;;;;4991600;28;24513;-59
2021/12/03 09:10:13;;;;;;;2.80;2.50;;;;;;;;;;4989067;28;24966;-59
2021/12/03 09:12:39;;;;;;;3.08;2.63;;;;;;;;;;4986400;28;24417;-60
2021/12/03 09:15:08;;;;;;;2.60;2.40;;;;;;;;;;4989634;28;24432;-60
2021/12/03 09:20:15;;;;;;;2.30;2.10;;;;;;;;;;4991735;28;24525;-60
2021/12/03 09:22:44;;;;;;;2.50;2.00;;;;;;;;;;4988776;28;24833;-59
2021/12/03 09:25:12;;;;;;;2.60;2.10;;;;;;;;;;4987179;28;24841;-59
2021/12/03 09:30:40;;;;;;;2.30;1.90;;;;;;;;;;4982689;28;24523;-59
2021/12/03 09:33:08;;;;;;;3.50;2.13;;;;;;;;;;4997865;28;24423;-62
2021/12/03 09:35:39;;;;;;;4.45;2.50;;;;;;;;;;4988967;28;24958;-59
2021/12/03 09:38:04;;;;;;;3.05;2.40;;;;;;;;;;4995442;28;24442;-60
2021/12/03 09:40:31;;;;;;;2.03;1.92;;;;;;;;;;4989800;28;24963;-59
2021/12/03 09:42:56;;;;;;;2.00;1.80;;;;;;;;;;4989444;28;24408;-60
2021/12/03 09:45:32;;;;;;;2.10;1.90;;;;;;;;;;4992138;28;24971;-60
2021/12/03 09:47:58;;;;;;;2.50;2.00;;;;;;;;;;4991077;28;24511;-60
2021/12/03 09:50:23;;;;;;;3.03;2.05;;;;;;;;;;4989264;28;24444;-60
2021/12/03 09:53:17;;;;;;;1.75;1.65;;;;;;;;;;4993863;28;24429;-60
2021/12/03 09:55:43;;;;;;;2.00;1.80;;;;;;;;;;4978365;28;24536;-59
2021/12/03 10:00:57;;;;;;;2.22;2.03;;;;;;;;;;4989764;28;24550;-60
2021/12/03 10:07:41;;;;;;;1.77;1.60;;;;;;;;;;4993382;28;24409;-59
2021/12/03 10:10:10;;;;;;;2.00;1.40;;;;;;;;;;4994496;28;24752;-60
2021/12/03 10:12:32;;;;;;;1.67;1.58;;;;;;;;;;4983385;28;24456;-60
2021/12/03 10:15:10;;;;;;;2.60;1.60;;;;;;;;;;4989743;28;24425;-60
2021/12/03 10:17:45;;;;;;;2.10;1.70;;;;;;;;;;4982772;28;24424;-60
2021/12/03 10:20:22;;;;;;;1.60;1.50;;;;;;;;;;4994536;28;24976;-59
2021/12/03 10:23:33;;;;;;;1.90;1.70;;;;;;;;;;4996631;28;24428;-59
2021/12/03 10:26:32;;;;;;;2.03;1.80;;;;;;;;;;4986935;28;24859;-56
2021/12/03 10:29:08;;;;;;;3.28;1.60;;;;;;;;;;4981899;28;24429;-57
2021/12/03 10:32:11;;;;;;;1.75;1.65;;;;;;;;;;4982427;28;25282;-56
2021/12/03 10:39:59;;;;;;;3.03;1.67;;;;;;;;;;4985942;28;24995;-59
2021/12/03 10:42:37;;;;;;;1.88;1.40;;;;;;;;;;4979359;28;25054;-59
2021/12/03 10:45:16;;;;;;;1.50;1.33;;;;;;;;;;4979707;28;25010;-59
2021/12/03 10:50:23;;;;;;;1.42;1.33;;;;;;;;;;4984938;28;24582;-59
2021/12/03 10:52:56;;;;;;;4.13;3.00;;;;;;;;;;4983803;28;24879;-59
2021/12/03 11:14:47;;;;;;;1.90;1.50;;;;;;;;;;4982905;28;24409;-59
2021/12/03 11:28:03;;;;;;;1.60;1.50;;;;;;;;;;4981414;28;25082;-60
2021/12/03 11:30:42;;;;;;;2.25;1.70;;;;;;;;;;4981723;28;24471;-59
2021/12/03 12:40:48;;;;;;;2.30;2.10;;;;;;;;;;4982887;28;24551;-59
2021/12/03 13:00:52;;;;;;;2.58;2.38;;;;;;;;;;4981454;28;24560;-59
2021/12/03 13:08:39;;;;;;;2.40;1.80;;;;;;;;;;4978014;28;24989;-59
2021/12/03 13:14:43;;;;;;;2.40;2.00;;;;;;;;;;4982910;28;24945;-59
2021/12/03 13:20:08;;;;;;;2.13;2.00;;;;;;;;;;4982367;28;24848;-59
2021/12/03 13:22:49;;;;;;;1.88;1.73;;;;;;;;;;4982066;28;24946;-60
2021/12/03 13:26:03;;;;;;;2.90;2.10;;;;;;;;;;4971215;28;24419;-60
2021/12/03 13:38:09;;;;;;;3.50;2.15;;;;;;;;;;4978817;28;24416;-59
2021/12/03 13:41:11;;;;;;;1.88;1.77;;;;;;;;;;4977359;28;24460;-59
2021/12/03 13:46:54;;;;;;;3.50;2.15;;;;;;;;;;4982585;28;24459;-60
2021/12/03 13:59:46;;;;;;;2.92;2.20;;;;;;;;;;4986274;28;24416;-59
2021/12/03 14:05:21;;;;;;;2.13;1.92;;;;;;;;;;4986741;28;24468;-59
2021/12/03 14:32:42;;;;;;;3.25;2.58;;;;;;;;;;4982587;28;25086;-59
2021/12/03 14:48:30;;;;;;;3.35;2.80;;;;;;;;;;4981705;28;25021;-58
2021/12/03 14:51:11;;;;;;;3.40;2.92;;;;;;;;;;4976300;28;24417;-59
2021/12/03 14:53:55;;;;;;;3.00;2.70;;;;;;;;;;4990423;28;24942;-58
2021/12/03 14:56:23;;;;;;;3.20;2.90;;;;;;;;;;4983310;28;24532;-58
2021/12/03 14:59:05;;;;;;;3.00;2.70;;;;;;;;;;4970040;28;24488;-59
2021/12/03 15:01:52;;;;;;;2.65;2.45;;;;;;;;;;4979352;28;24431;-59
2021/12/03 15:09:36;;;;;;;3.20;2.90;;;;;;;;;;4963117;28;24986;-59
2021/12/03 15:16:03;;;;;;;2.70;2.50;;;;;;;;;;4977841;28;24440;-58
2021/12/03 15:23:14;;;;;;;3.07;2.87;;;;;;;;;;4979233;28;24507;-58
2021/12/03 15:30:47;;;;;;;2.80;2.60;;;;;;;;;;4990226;28;24479;-58
2021/12/03 15:35:54;;;;;;;3.25;2.85;;;;;;;;;;4979005;28;24472;-58
2021/12/03 15:38:36;;;;;;;3.13;2.83;;;;;;;;;;4987473;28;24417;-58
2021/12/03 15:41:23;;;;;;;3.70;3.40;;;;;;;;;;4981763;28;25021;-59
2021/12/03 15:52:32;;;;;;;3.67;3.40;;;;;;;;;;4976980;28;24508;-59
2021/12/03 15:57:25;;;;;;;4.47;4.07;;;;;;;;;;4983239;28;25069;-59
2021/12/03 16:08:14;;;;;;;3.80;3.28;;;;;;;;;;4979404;28;24412;-59
2021/12/03 16:13:23;;;;;;;4.10;3.50;;;;;;;;;;4983116;28;24416;-59
2021/12/03 16:26:51;;;;;;;3.90;3.47;;;;;;;;;;4983241;28;24432;-61
2021/12/03 16:53:33;;;;;;;3.80;3.50;;;;;;;;;;4977402;28;24417;-60
2021/12/03 16:56:06;;;;;;;3.90;3.60;;;;;;;;;;4977026;28;24463;-59
2021/12/03 16:58:33;;;;;;;4.28;3.88;;;;;;;;;;4982818;28;24461;-59
2021/12/03 17:01:05;;;;;;;3.92;3.35;;;;;;;;;;4981164;28;24416;-57
2021/12/03 17:03:42;;;;;;;3.60;3.30;;;;;;;;;;4978172;28;24424;-58
2021/12/03 17:07:10;;;;;;;4.20;3.80;;;;;;;;;;4976746;28;24445;-59
2021/12/03 17:09:24;;;;;;;4.38;4.00;;;;;;;;;;4977511;28;24483;-58
2021/12/03 17:14:50;;;;;;;5.35;4.40;;;;;;;;;;4977106;28;24617;-58
2021/12/03 17:26:13;;;;;;;4.47;4.10;;;;;;;;;;4980924;28;24437;-59
2021/12/03 17:29:15;;;;;;;4.68;4.22;;;;;;;;;;4996878;28;24993;-58
2021/12/03 17:31:56;;;;;;;4.70;4.30;;;;;;;;;;4985729;28;24795;-58
2021/12/03 17:45:12;;;;;;;4.50;4.10;;;;;;;;;;4994017;28;24965;-59
2021/12/03 17:47:40;;;;;;;4.22;3.83;;;;;;;;;;5003658;28;24496;-59
2021/12/03 17:50:14;;;;;;;4.30;3.90;;;;;;;;;;4984910;28;24544;-59
2021/12/03 17:55:33;;;;;;;5.40;4.90;;;;;;;;;;4988887;28;24826;-58
2021/12/03 17:58:10;;;;;;;5.35;4.85;;;;;;;;;;4986890;28;24464;-58
2021/12/03 18:00:42;;;;;;;7.00;6.30;;;;;;;;;;4982556;28;24416;-59
2021/12/03 18:08:57;;;;;;;6.10;5.50;;;;;;;;;;4960036;28;24479;-58
2021/12/03 18:11:44;;;;;;;5.53;4.90;;;;;;;;;;4979303;28;24513;-59
2021/12/03 18:50:09;;;;;;;6.50;5.90;;;;;;;;;;4981699;28;25037;-59
2021/12/03 18:55:11;;;;;;;7.00;6.30;;;;;;;;;;4979418;28;24987;-58
2021/12/03 18:57:43;;;;;;;7.67;6.90;;;;;;;;;;4976769;28;24460;-58
2021/12/03 19:00:10;;;;;;;6.53;5.93;;;;;;;;;;4977158;28;24421;-58
2021/12/03 19:02:38;;;;;;;6.80;6.20;;;;;;;;;;4975426;28;24444;-57
2021/12/03 19:05:35;;;;;;;6.27;5.63;;;;;;;;;;4978787;28;24404;-57
2021/12/03 19:10:27;;;;;;;7.45;6.80;;;;;;;;;;4982624;28;24428;-60
2021/12/03 19:12:58;;;;;;;7.35;6.57;;;;;;;;;;4978929;28;25108;-60
2021/12/03 19:15:25;;;;;;;7.10;6.50;;;;;;;;;;4977385;28;24488;-59
2021/12/03 19:17:50;;;;;;;6.13;5.53;;;;;;;;;;4980635;28;24437;-58
2021/12/03 19:20:21;;;;;;;5.50;5.00;;;;;;;;;;4979446;28;25392;-59
2021/12/03 19:22:46;;;;;;;6.30;5.70;;;;;;;;;;4982648;28;24512;-58
2021/12/03 19:25:11;;;;;;;6.00;5.50;;;;;;;;;;4981750;28;24575;-58
2021/12/03 19:27:38;;;;;;;6.10;5.50;;;;;;;;;;4979221;28;24799;-58
2021/12/03 19:30:04;;;;;;;7.00;6.30;;;;;;;;;;4977314;28;25236;-60
2021/12/03 19:32:31;;;;;;;5.75;5.25;;;;;;;;;;4978081;28;24421;-58
2021/12/03 19:34:57;;;;;;;4.75;4.35;;;;;;;;;;4980772;28;24423;-58
2021/12/03 19:37:24;;;;;;;5.07;4.60;;;;;;;;;;4980479;28;24846;-58
2021/12/03 19:39:49;;;;;;;5.38;4.80;;;;;;;;;;4977565;28;24959;-58
2021/12/03 19:42:18;;;;;;;5.37;4.87;;;;;;;;;;4975827;28;24455;-58
2021/12/03 19:44:54;;;;;;;4.50;4.10;;;;;;;;;;4980407;28;24443;-59
2021/12/03 19:47:28;;;;;;;4.28;3.85;;;;;;;;;;4976839;28;24424;-58
2021/12/03 19:50:05;;;;;;;3.10;2.90;;;;;;;;;;4979158;28;24417;-59
2021/12/03 19:52:39;;;;;;;3.20;2.90;;;;;;;;;;4981527;28;24429;-59
2021/12/03 19:55:04;;;;;;;3.85;2.85;;;;;;;;;;4986559;28;24526;-59
2021/12/03 19:57:29;;;;;;;3.20;2.90;;;;;;;;;;4977475;28;24808;-60
2021/12/03 19:59:55;;;;;;;2.50;2.03;;;;;;;;;;4979455;28;24437;-60
2021/12/03 20:02:22;;;;;;;2.70;2.50;;;;;;;;;;4979634;28;24448;-60
2021/12/03 20:04:47;;;;;;;2.57;2.37;;;;;;;;;;4978963;28;24417;-60
2021/12/03 20:07:12;;;;;;;2.50;2.30;;;;;;;;;;4978852;28;24420;-58
2021/12/03 20:09:56;;;;;;;2.40;2.20;;;;;;;;;;4973469;28;24460;-58
2021/12/03 20:12:22;;;;;;;2.40;2.20;;;;;;;;;;4974555;28;24457;-59
2021/12/03 20:14:49;;;;;;;2.43;2.23;;;;;;;;;;4977816;28;24549;-59
2021/12/03 20:17:19;;;;;;;3.40;2.47;;;;;;;;;;4979071;28;24444;-59
2021/12/03 20:19:49;;;;;;;3.90;2.70;;;;;;;;;;4978989;28;24405;-59
2021/12/03 20:22:20;;;;;;;2.70;2.50;;;;;;;;;;4978256;28;24555;-59
2021/12/03 20:27:27;;;;;;;3.70;2.33;;;;;;;;;;4984401;28;24516;-58
2021/12/03 20:30:04;;;;;;;3.70;2.50;;;;;;;;;;4983206;28;24795;-58
2021/12/03 20:35:11;;;;;;;2.75;2.55;;;;;;;;;;4976774;28;24525;-58
2021/12/03 20:37:40;;;;;;;2.80;2.60;;;;;;;;;;4976566;28;24436;-58
2021/12/03 20:40:10;;;;;;;2.90;2.60;;;;;;;;;;4979825;28;24568;-58
2021/12/03 20:42:43;;;;;;;2.90;2.70;;;;;;;;;;4988566;28;24451;-58
2021/12/03 20:45:29;;;;;;;2.65;2.45;;;;;;;;;;4969977;28;25005;-58
2021/12/03 20:50:53;;;;;;;3.03;2.70;;;;;;;;;;4975123;28;25217;-59
2021/12/03 21:09:16;;;;;;;2.70;2.50;;;;;;;;;;4985166;28;24428;-59
2021/12/03 21:11:44;;;;;;;2.20;2.10;;;;;;;;;;4978420;28;24421;-59
2021/12/03 21:14:15;;;;;;;2.70;2.50;;;;;;;;;;4980604;28;24556;-60
2021/12/03 21:16:53;;;;;;;3.25;2.90;;;;;;;;;;4984706;28;24440;-59
2021/12/03 21:22:06;;;;;;;3.30;3.10;;;;;;;;;;4981441;28;24968;-58